TimeCDT,TemperatureF,Dew PointF,Humidity,Sea Level PressureIn,VisibilityMPH,Wind Direction,Wind SpeedMPH,Gust SpeedMPH,PrecipitationIn,Events,Conditions,WindDirDegrees,DateUTC
12:52 AM,50.0,30.0,46,30.17,10.0,NNW,8.1,-,N/A,,Clear,340,2011-10-19 05:52:00
1:52 AM,50.0,30.0,46,30.17,10.0,NW,9.2,-,N/A,,Clear,310,2011-10-19 06:52:00
2:52 AM,48.0,30.9,52,30.17,10.0,NW,8.1,-,N/A,,Clear,320,2011-10-19 07:52:00
3:52 AM,46.0,30.9,56,30.17,10.0,NNW,5.8,-,N/A,,Clear,330,2011-10-19 08:52:00
4:52 AM,46.0,30.9,56,30.17,10.0,WNW,4.6,-,N/A,,Clear,300,2011-10-19 09:52:00
5:52 AM,45.0,30.9,58,30.18,10.0,Calm,Calm,-,N/A,,Clear,0,2011-10-19 10:52:00
6:52 AM,42.1,33.1,70,30.19,10.0,Calm,Calm,-,N/A,,Clear,0,2011-10-19 11:52:00
7:52 AM,43.0,32.0,65,30.19,10.0,West,4.6,-,N/A,,Clear,260,2011-10-19 12:52:00
8:52 AM,48.0,33.1,56,30.21,10.0,West,5.8,-,N/A,,Clear,270,2011-10-19 13:52:00
9:52 AM,55.9,30.9,39,30.21,10.0,WNW,8.1,-,N/A,,Clear,300,2011-10-19 14:52:00
10:52 AM,61.0,30.9,32,30.19,10.0,WNW,11.5,-,N/A,,Clear,300,2011-10-19 15:52:00
11:52 AM,64.9,28.0,25,30.18,10.0,WNW,17.3,25.3,N/A,,Clear,300,2011-10-19 16:52:00
12:52 PM,66.9,27.0,22,30.16,10.0,NNW,17.3,27.6,N/A,,Clear,330,2011-10-19 17:52:00
1:52 PM,69.1,27.0,21,30.12,10.0,NW,15.0,31.1,N/A,,Partly Cloudy,320,2011-10-19 18:52:00
2:52 PM,71.1,25.0,18,30.09,10.0,NNW,18.4,28.8,N/A,,Clear,340,2011-10-19 19:52:00
3:15 PM,71.6,26.6,19,30.11,9.0,North,20.7,28.8,N/A,,Partly Cloudy,350,2011-10-19 20:15:00
3:52 PM,71.1,26.1,19,30.07,9.0,North,15.0,25.3,N/A,,Clear,360,2011-10-19 20:52:00
4:52 PM,71.1,27.0,19,30.06,10.0,NNW,16.1,24.2,N/A,,Clear,340,2011-10-19 21:52:00
5:52 PM,69.1,27.0,21,30.06,10.0,North,11.5,-,N/A,,Clear,360,2011-10-19 22:52:00
6:52 PM,64.9,28.0,25,30.07,10.0,NNE,6.9,-,N/A,,Clear,20,2011-10-19 23:52:00
7:52 PM,62.1,28.0,28,30.08,10.0,East,3.5,-,N/A,,Clear,90,2011-10-20 00:52:00
8:52 PM,57.0,30.0,36,30.08,10.0,Variable,5.8,-,N/A,,Clear,0,2011-10-20 01:52:00
9:52 PM,54.0,30.0,40,30.08,10.0,ESE,6.9,-,N/A,,Clear,110,2011-10-20 02:52:00
10:52 PM,51.1,30.9,46,30.08,10.0,SE,4.6,-,N/A,,Clear,140,2011-10-20 03:52:00
11:52 PM,48.9,30.9,50,30.07,10.0,SSE,6.9,-,N/A,,Clear,160,2011-10-20 04:52:00